Time;durP1;ratioP1;P1;durP2;ratioP2;P2;SDS_P1;SDS_P2;PMS_P1;PMS_P2;Temp;Humidity;BMP_temperature;BMP_pressure;BME280_temperature;BME280_humidity;BME280_pressure;Samples;Min_cycle;Max_cycle;Signal;HPM_P1;HPM_P2
2021/12/15 00:42:02;;;;;;;6.32;4.57;;;;;;;9.12;100.00;102973.09;4898451;29;20048;-82
2021/12/15 00:44:27;;;;;;;6.10;4.43;;;;;;;9.06;100.00;102963.38;4900378;29;20484;-83
2021/12/15 00:46:53;;;;;;;9.05;5.50;;;;;;;9.13;100.00;102967.78;4899748;29;20035;-83
2021/12/15 00:49:22;;;;;;;5.90;3.80;;;;;;;9.08;100.00;102961.59;4899771;29;20029;-83
2021/12/15 00:51:47;;;;;;;4.75;4.07;;;;;;;9.06;100.00;102963.38;4900541;29;20064;-83
2021/12/15 00:54:13;;;;;;;7.95;6.18;;;;;;;9.07;100.00;102959.84;4899136;29;20029;-83
2021/12/15 00:56:39;;;;;;;6.93;6.35;;;;;;;9.13;100.00;102959.84;4899843;29;20033;-83
2021/12/15 00:59:07;;;;;;;5.80;4.90;;;;;;;9.14;100.00;102956.28;4899539;29;20123;-82
2021/12/15 01:01:34;;;;;;;5.60;5.10;;;;;;;9.17;100.00;102953.63;4899352;29;20036;-83
2021/12/15 01:03:59;;;;;;;10.27;5.57;;;;;;;9.08;100.00;102944.81;4900117;29;20044;-83
2021/12/15 01:06:25;;;;;;;10.50;5.90;;;;;;;9.06;100.00;102952.75;4900110;29;20040;-83
2021/12/15 01:08:58;;;;;;;7.78;5.38;;;;;;;9.13;100.00;102953.63;4899385;29;20048;-83
2021/12/15 01:12:06;;;;;;;7.18;6.38;;;;;;;9.08;100.00;102956.31;4899610;29;20041;-83
2021/12/15 01:20:14;;;;;;;9.07;5.32;;;;;;;9.00;100.00;102946.59;4900094;29;20060;-83
2021/12/15 01:22:43;;;;;;;6.88;5.40;;;;;;;9.10;100.00;102948.34;4898771;29;20028;-83
2021/12/15 01:25:17;;;;;;;5.03;4.60;;;;;;;9.04;100.00;102951.88;4899901;29;20373;-83
2021/12/15 01:27:45;;;;;;;6.85;5.38;;;;;;;9.09;100.00;102942.16;4899899;29;20092;-83
2021/12/15 01:30:14;;;;;;;8.32;6.53;;;;;;;9.00;100.00;102942.19;4898953;29;20024;-83
2021/12/15 01:32:40;;;;;;;7.28;4.50;;;;;;;9.05;100.00;102951.00;4899783;29;20053;-83
2021/12/15 01:35:06;;;;;;;6.25;3.38;;;;;;;9.05;100.00;102935.13;4899161;29;20032;-83
2021/12/15 01:37:31;;;;;;;11.25;5.60;;;;;;;8.99;100.00;102951.03;4898854;29;20036;-83
2021/12/15 01:39:57;;;;;;;8.18;5.47;;;;;;;9.04;100.00;102945.72;4899232;29;20052;-83
2021/12/15 01:42:26;;;;;;;7.35;5.03;;;;;;;9.17;100.00;102950.97;4899421;29;20548;-83
2021/12/15 01:47:41;;;;;;;5.45;4.55;;;;;;;9.20;100.00;102948.31;4890068;29;20114;-83
2021/12/15 01:50:12;;;;;;;5.75;3.90;;;;;;;9.13;100.00;102953.63;4898518;29;20040;-83
2021/12/15 01:52:40;;;;;;;4.30;3.83;;;;;;;9.10;100.00;102958.94;4899208;29;20024;-83
2021/12/15 01:55:12;;;;;;;5.15;4.47;;;;;;;9.20;100.00;102955.41;4898903;29;20032;-83
2021/12/15 01:57:40;;;;;;;9.90;4.82;;;;;;;9.11;100.00;102952.75;4881606;29;20056;-83
2021/12/15 02:00:15;;;;;;;8.93;7.05;;;;;;;9.09;100.00;102947.44;4898640;29;20052;-82
2021/12/15 02:02:41;;;;;;;9.00;5.82;;;;;;;8.99;100.00;102955.44;4894697;29;20544;-83
2021/12/15 02:05:07;;;;;;;6.32;5.05;;;;;;;9.08;100.00;102955.41;4897674;29;20047;-83
2021/12/15 02:07:33;;;;;;;7.75;5.65;;;;;;;9.02;100.00;102958.97;4898774;29;20120;-83
2021/12/15 02:12:32;;;;;;;8.38;4.47;;;;;;;9.13;100.00;102966.88;4897524;29;20036;-83
2021/12/15 02:14:59;;;;;;;8.77;6.78;;;;;;;9.10;100.00;102969.56;4899243;29;20039;-82
2021/12/15 02:17:25;;;;;;;5.40;4.82;;;;;;;9.19;100.00;102959.81;4898644;29;20032;-83
2021/12/15 02:19:50;;;;;;;7.28;4.60;;;;;;;9.10;100.00;102957.19;4898479;29;20029;-84
2021/12/15 02:22:16;;;;;;;6.45;5.82;;;;;;;9.13;100.00;102951.88;4898643;29;20410;-83
2021/12/15 02:24:43;;;;;;;5.38;4.13;;;;;;;9.19;100.00;102956.25;4898585;29;20050;-83
2021/12/15 02:27:12;;;;;;;8.30;4.90;;;;;;;9.07;100.00;102965.16;4897959;29;20028;-84
2021/12/15 02:29:41;;;;;;;8.73;5.47;;;;;;;9.01;100.00;102964.28;4898947;29;20052;-84
2021/12/15 02:32:41;;;;;;;9.10;5.43;;;;;;;9.13;100.00;102953.63;4897793;29;20032;-83
2021/12/15 02:37:50;;;;;;;8.65;4.93;;;;;;;9.07;100.00;102958.97;4879585;29;20089;-83
2021/12/15 02:40:17;;;;;;;8.57;6.40;;;;;;;9.12;100.00;102954.53;4879114;29;20482;-83
2021/12/15 02:42:47;;;;;;;5.90;4.07;;;;;;;9.11;100.00;102961.59;4879629;29;20040;-83
2021/12/15 02:45:15;;;;;;;;;;;;;;;9.12;100.00;102965.13;4879849;29;20025;-82
2021/12/15 02:47:41;;;;;;;5.65;3.67;;;;;;;9.12;100.00;102955.38;4878658;29;19938;-83
2021/12/15 02:50:10;;;;;;;5.38;4.45;;;;;;;9.26;100.00;102958.88;4885970;29;20413;-83
2021/12/15 02:52:37;;;;;;;6.57;5.45;;;;;;;9.14;100.00;102950.97;4897910;29;20043;-83
2021/12/15 02:55:04;;;;;;;6.65;5.35;;;;;;;9.14;100.00;102953.63;4897134;29;20060;-83
2021/12/15 02:57:30;;;;;;;7.60;4.53;;;;;;;9.12;100.00;102959.84;4898190;29;20033;-83
2021/12/15 03:00:15;;;;;;;8.35;4.88;;;;;;;9.18;100.00;102957.16;4898102;29;20120;-82
2021/12/15 03:05:26;;;;;;;3.80;2.73;;;;;;;9.08;100.00;102951.00;4898240;29;20043;-82
2021/12/15 03:16:07;;;;;;;5.25;4.68;;;;;;;9.12;100.00;102954.53;4897071;29;20051;-83
2021/12/15 03:18:33;;;;;;;5.32;4.20;;;;;;;9.23;100.00;102960.69;4898804;29;20025;-83
2021/12/15 03:21:01;;;;;;;5.93;4.88;;;;;;;9.21;100.00;102959.78;4901805;29;20035;-83
2021/12/15 03:23:45;;;;;;;7.93;6.03;;;;;;;9.14;100.00;102969.53;4901421;29;20480;-83
2021/12/15 03:26:15;;;;;;;8.98;4.57;;;;;;;9.16;100.00;102962.47;4901752;29;20051;-83
2021/12/15 03:34:13;;;;;;;6.18;4.43;;;;;;;9.15;100.00;102957.16;4903942;29;20043;-82
2021/12/15 03:39:25;;;;;;;6.10;5.28;;;;;;;9.27;100.00;102947.41;4903891;29;20186;-83
2021/12/15 03:41:58;;;;;;;4.63;3.63;;;;;;;9.29;100.00;102945.63;4901416;29;20063;-84
2021/12/15 03:44:24;;;;;;;6.63;4.47;;;;;;;9.13;100.00;102951.88;4900518;29;20035;-84
2021/12/15 03:46:50;;;;;;;9.52;6.85;;;;;;;9.24;100.00;102957.13;4901550;29;20057;-84
2021/12/15 03:49:16;;;;;;;3.40;3.10;;;;;;;9.31;100.00;102953.59;4901054;29;20021;-83
2021/12/15 03:51:41;;;;;;;5.07;4.60;;;;;;;9.24;100.00;102963.31;4881942;29;20032;-84
2021/12/15 03:54:07;;;;;;;8.32;4.97;;;;;;;9.41;100.00;102954.44;4882553;29;20385;-84
2021/12/15 03:56:40;;;;;;;9.82;4.10;;;;;;;9.32;100.00;102965.94;4881935;29;20017;-83
2021/12/15 03:59:07;;;;;;;7.15;4.45;;;;;;;9.32;100.00;102965.94;4885847;29;20025;-84
2021/12/15 04:01:33;;;;;;;7.43;4.72;;;;;;;9.27;100.00;102967.72;4890332;29;20466;-84
2021/12/15 04:03:58;;;;;;;6.68;4.60;;;;;;;9.32;100.00;102966.84;4894811;29;20171;-84
2021/12/15 04:06:31;;;;;;;5.18;4.68;;;;;;;9.43;100.00;102969.44;4900871;29;20032;-84
2021/12/15 04:08:56;;;;;;;9.30;4.38;;;;;;;9.45;100.00;102969.44;4882223;29;20029;-84
2021/12/15 04:11:26;;;;;;;8.65;5.97;;;;;;;9.23;100.00;102969.50;4881502;29;20029;-84
2021/12/15 04:13:52;;;;;;;7.05;5.00;;;;;;;9.37;100.00;102965.91;4882392;29;20033;-84
2021/12/15 04:16:42;;;;;;;7.82;4.88;;;;;;;9.32;100.00;102980.09;4891319;29;20063;-83
2021/12/15 04:19:11;;;;;;;4.60;3.38;;;;;;;9.35;100.00;102976.53;4900170;29;20024;-84
2021/12/15 04:21:38;;;;;;;8.57;5.10;;;;;;;9.28;100.00;102978.31;4900763;29;20021;-84
2021/12/15 04:24:06;;;;;;;5.50;3.10;;;;;;;9.25;100.00;102975.69;4896150;29;20041;-83
2021/12/15 04:26:32;;;;;;;7.35;5.10;;;;;;;9.29;100.00;102977.47;4889194;29;20033;-83
2021/12/15 04:28:57;;;;;;;7.43;4.47;;;;;;;9.33;100.00;102976.53;4885370;29;20370;-83
2021/12/15 04:31:26;;;;;;;5.72;4.90;;;;;;;9.43;100.00;102979.16;4887234;29;20012;-83
2021/12/15 04:34:06;;;;;;;11.17;6.70;;;;;;;9.27;100.00;102979.22;4888264;29;20078;-83
2021/12/15 04:36:33;;;;;;;;;;;;;;;9.41;100.00;102973.00;4882422;29;20049;-83
2021/12/15 04:39:00;;;;;;;5.45;4.85;;;;;;;9.32;100.00;102977.44;4880913;29;19922;-83
2021/12/15 04:41:29;;;;;;;4.18;3.72;;;;;;;9.32;100.00;102980.09;4881623;29;20080;-83
2021/12/15 04:43:57;;;;;;;5.63;4.80;;;;;;;9.32;100.00;102980.09;4886695;29;20069;-83
2021/12/15 04:46:27;;;;;;;9.07;4.50;;;;;;;9.34;100.00;102969.47;4890180;29;20549;-83
2021/12/15 04:48:54;;;;;;;9.18;5.25;;;;;;;9.40;100.00;102980.06;4888688;29;20043;-83
2021/12/15 04:51:20;;;;;;;7.60;4.05;;;;;;;9.36;100.00;102982.72;4891090;29;20468;-82
2021/12/15 04:53:47;;;;;;;6.75;5.95;;;;;;;9.41;100.00;102984.47;4887645;29;20075;-84
2021/12/15 04:56:13;;;;;;;8.52;4.32;;;;;;;9.43;100.00;102984.44;4899937;29;20103;-83
2021/12/15 04:58:39;;;;;;;9.63;5.63;;;;;;;9.46;100.00;102980.03;4900069;29;20488;-85
2021/12/15 05:01:10;;;;;;;7.80;4.82;;;;;;;9.41;100.00;102988.91;4898925;29;20032;-85
2021/12/15 05:03:38;;;;;;;9.60;4.80;;;;;;;9.30;100.00;102979.22;4900316;29;20370;-84
2021/12/15 05:06:04;;;;;;;7.57;5.93;;;;;;;9.32;100.00;102990.69;4899589;29;20053;-83
2021/12/15 05:08:30;;;;;;;6.18;4.25;;;;;;;9.36;100.00;102980.09;4899690;29;20024;-84
2021/12/15 05:10:56;;;;;;;8.48;5.32;;;;;;;9.33;100.00;102984.50;4900253;29;20496;-83
2021/12/15 05:13:22;;;;;;;11.63;5.15;;;;;;;9.25;100.00;102980.09;4899961;29;20383;-85
2021/12/15 05:15:48;;;;;;;6.22;4.10;;;;;;;9.46;100.00;102990.63;4899310;29;20631;-84
2021/12/15 05:18:14;;;;;;;8.30;5.80;;;;;;;9.42;100.00;102993.31;4899251;29;20069;-85
2021/12/15 05:20:45;;;;;;;11.98;5.68;;;;;;;9.38;100.00;102992.44;4899397;29;20063;-84
2021/12/15 05:23:13;;;;;;;7.75;4.10;;;;;;;9.28;100.00;102986.28;4899084;29;20076;-83
2021/12/15 05:25:38;;;;;;;7.35;4.28;;;;;;;9.25;100.00;102988.94;4899527;29;20033;-83
2021/12/15 05:28:04;;;;;;;5.38;4.88;;;;;;;9.31;100.00;102993.34;4898765;29;20032;-83
2021/12/15 05:30:29;;;;;;;8.00;6.22;;;;;;;9.30;100.00;102994.22;4899471;29;20473;-83
2021/12/15 05:32:55;;;;;;;12.02;3.85;;;;;;;9.35;100.00;103008.34;4899531;29;20400;-83
2021/12/15 05:35:24;;;;;;;7.07;4.90;;;;;;;9.28;100.00;103004.84;4898759;29;20359;-83
2021/12/15 05:37:52;;;;;;;7.28;6.18;;;;;;;9.37;100.00;103011.00;4898851;29;20056;-82
2021/12/15 05:40:18;;;;;;;5.97;3.92;;;;;;;9.42;100.00;103003.91;4884661;29;20053;-84
2021/12/15 05:43:05;;;;;;;3.35;3.15;;;;;;;9.46;100.00;103009.19;4879842;29;20052;-82
2021/12/15 05:45:34;;;;;;;8.52;3.92;;;;;;;9.45;100.00;103004.81;4880440;29;20033;-82
2021/12/15 05:48:00;;;;;;;5.13;4.25;;;;;;;9.36;100.00;102990.69;4880754;29;20022;-82
2021/12/15 05:50:28;;;;;;;9.60;4.47;;;;;;;9.39;100.00;103002.19;4879968;29;20084;-82
2021/12/15 05:52:57;;;;;;;3.72;3.10;;;;;;;9.49;100.00;103006.53;4880383;29;20029;-83
2021/12/15 05:55:23;;;;;;;7.82;5.15;;;;;;;9.52;100.00;103003.00;4880214;29;20492;-84
2021/12/15 05:57:48;;;;;;;7.07;4.72;;;;;;;9.45;100.00;103002.16;4880141;29;20029;-83
2021/12/15 06:00:19;;;;;;;5.75;4.38;;;;;;;9.45;100.00;103004.81;4880070;29;20060;-83
2021/12/15 06:02:47;;;;;;;6.30;4.72;;;;;;;9.46;100.00;103009.19;4880382;29;20037;-85
2021/12/15 06:05:14;;;;;;;14.48;5.80;;;;;;;9.43;100.00;103008.31;4882179;29;20027;-85
2021/12/15 06:07:40;;;;;;;7.22;4.82;;;;;;;9.44;100.00;103023.38;4891152;29;20028;-83
2021/12/15 06:10:10;;;;;;;8.00;5.78;;;;;;;9.43;100.00;103018.94;4897973;29;20075;-83
2021/12/15 06:12:35;;;;;;;6.20;4.47;;;;;;;9.46;100.00;103011.84;4898490;29;20036;-82
2021/12/15 06:15:02;;;;;;;6.85;3.85;;;;;;;9.52;100.00;103011.81;4899226;29;20036;-82
2021/12/15 06:17:28;;;;;;;10.52;5.78;;;;;;;9.51;100.00;103015.38;4892810;29;20489;-81
2021/12/15 06:19:54;;;;;;;6.78;4.15;;;;;;;9.50;100.00;103012.72;4880249;29;20108;-82
2021/12/15 06:22:24;;;;;;;10.27;5.50;;;;;;;9.41;100.00;103018.94;4879547;29;20021;-82
2021/12/15 06:24:54;;;;;;;9.15;4.60;;;;;;;9.44;100.00;103018.06;4879305;29;20116;-82
2021/12/15 06:28:03;;;;;;;6.47;5.78;;;;;;;9.45;100.00;103022.47;4858531;29;20041;-82
2021/12/15 06:30:29;;;;;;;6.83;4.87;;;;;;;9.50;100.00;103020.69;4879989;29;20132;-82
2021/12/15 06:32:57;;;;;;;6.75;5.45;;;;;;;9.45;100.00;103026.03;4878250;29;20132;-82
2021/12/15 06:35:38;;;;;;;11.95;5.40;;;;;;;9.49;100.00;103032.16;4879411;29;20116;-82
2021/12/15 06:38:05;;;;;;;9.95;4.47;;;;;;;9.54;100.00;103027.72;4879697;29;20032;-83
2021/12/15 06:40:30;;;;;;;8.43;5.30;;;;;;;9.47;100.00;103028.66;4879217;29;20373;-82
2021/12/15 06:42:56;;;;;;;6.28;5.05;;;;;;;9.52;100.00;103033.03;4874853;29;20119;-82
2021/12/15 06:45:52;;;;;;;8.18;4.95;;;;;;;9.54;100.00;103035.69;4878553;29;20029;-82
2021/12/15 06:59:14;;;;;;;4.28;2.60;;;;;;;9.51;100.00;103052.50;4900429;29;20068;-91
2021/12/15 07:01:40;;;;;;;10.65;5.85;;;;;;;9.48;100.00;103055.19;4898370;29;20115;-89
2021/12/15 07:04:26;;;;;;;5.53;4.72;;;;;;;9.55;100.00;103048.09;4888709;29;20036;-89
2021/12/15 07:06:52;;;;;;;5.72;3.72;;;;;;;9.55;100.00;103050.75;4891897;29;20025;-92
2021/12/15 07:09:22;;;;;;;7.22;4.50;;;;;;;9.47;100.00;103057.84;4891399;29;20029;-91
2021/12/15 07:11:50;;;;;;;7.32;4.78;;;;;;;9.48;100.00;103056.94;4886327;29;20116;-90
2021/12/15 07:14:19;;;;;;;7.28;4.45;;;;;;;9.53;100.00;103057.81;4889225;29;20033;-92
2021/12/15 07:16:56;;;;;;;6.80;3.92;;;;;;;9.45;100.00;103057.84;4886117;29;20044;-92
2021/12/15 07:22:06;;;;;;;5.28;4.10;;;;;;;9.52;100.00;103070.19;4889792;29;20037;-91
2021/12/15 07:24:33;;;;;;;6.03;4.80;;;;;;;9.49;100.00;103064.00;4892048;29;20060;-91
2021/12/15 07:27:00;;;;;;;6.03;4.85;;;;;;;9.55;100.00;103064.88;4891735;29;20029;-92
2021/12/15 07:29:26;;;;;;;10.10;4.18;;;;;;;9.54;100.00;103063.13;4886678;29;20076;-90
2021/12/15 07:31:52;;;;;;;7.00;3.15;;;;;;;9.57;100.00;103064.88;4886854;29;20396;-90
2021/12/15 07:34:17;;;;;;;5.75;4.68;;;;;;;9.48;100.00;103067.56;4894807;29;20029;-91
2021/12/15 07:36:42;;;;;;;6.57;4.50;;;;;;;9.51;100.00;103063.13;4895763;29;20012;-92
2021/12/15 07:39:11;;;;;;;8.90;3.33;;;;;;;9.51;100.00;103071.09;4886183;29;20473;-91
2021/12/15 07:41:47;;;;;;;6.60;4.25;;;;;;;9.51;100.00;103081.69;4895455;29;20049;-92
2021/12/15 07:44:13;;;;;;;8.73;5.22;;;;;;;9.66;100.00;103075.47;4888643;29;20029;-92
2021/12/15 07:46:39;;;;;;;5.68;4.20;;;;;;;9.62;100.00;103076.34;4892862;29;20535;-91
2021/12/15 07:49:04;;;;;;;5.10;3.08;;;;;;;9.57;100.00;103079.03;4888667;29;20065;-93
2021/12/15 07:51:29;;;;;;;8.57;5.68;;;;;;;9.59;100.00;103063.09;4890244;29;20495;-92
2021/12/15 07:53:54;;;;;;;6.32;3.78;;;;;;;9.52;100.00;103064.03;4890911;29;20035;-92
2021/12/15 07:56:21;;;;;;;7.88;3.88;;;;;;;9.60;100.00;103073.69;4893939;29;20095;-93
2021/12/15 07:58:46;;;;;;;7.07;3.80;;;;;;;9.65;100.00;103076.34;4889156;29;20108;-91
2021/12/15 08:01:25;;;;;;;7.95;5.40;;;;;;;9.58;100.00;103074.59;4890855;29;20025;-92
2021/12/15 08:03:54;;;;;;;6.15;3.08;;;;;;;9.68;100.00;103069.25;4895242;29;20033;-92
2021/12/15 08:06:24;;;;;;;5.57;4.37;;;;;;;9.61;100.00;103078.13;4889863;29;20049;-92
2021/12/15 08:08:49;;;;;;;5.93;3.50;;;;;;;9.62;100.00;103071.03;4892009;29;20024;-91
2021/12/15 08:11:30;;;;;;;6.93;3.35;;;;;;;9.58;100.00;103071.94;4901416;29;20337;-91
2021/12/15 08:13:57;;;;;;;6.25;3.47;;;;;;;9.70;100.00;103069.25;4907661;29;20040;-92
2021/12/15 08:16:28;;;;;;;6.63;3.28;;;;;;;9.73;100.00;103075.44;4909448;29;20028;-93
2021/12/15 08:19:05;;;;;;;7.63;5.20;;;;;;;9.76;100.00;103072.75;4911343;29;20064;-91
2021/12/15 08:21:30;;;;;;;4.95;4.07;;;;;;;9.74;100.00;103073.66;4890997;29;20264;-90
2021/12/15 08:24:01;;;;;;;7.47;4.07;;;;;;;9.73;100.00;103078.09;4893000;29;20036;-89
2021/12/15 08:26:36;;;;;;;6.28;3.45;;;;;;;9.85;100.00;103072.72;4892818;29;20088;-91
2021/12/15 08:29:06;;;;;;;9.07;4.78;;;;;;;9.74;100.00;103077.19;4900633;29;20031;-91
2021/12/15 08:31:32;;;;;;;6.68;5.43;;;;;;;9.79;100.00;103077.16;4899553;29;20495;-92
2021/12/15 08:34:13;;;;;;;7.63;6.53;;;;;;;9.78;100.00;103075.41;4890301;29;20033;-92
2021/12/15 08:36:39;;;;;;;4.80;4.35;;;;;;;9.86;100.00;103085.13;4903329;29;20036;-90
2021/12/15 08:39:43;;;;;;;5.78;3.13;;;;;;;9.87;100.00;103085.97;4893590;29;20116;-86
2021/12/15 10:43:31;;;;;;;3.88;2.90;;;;;;;10.48;100.00;103140.56;4902210;29;20115;-82
2021/12/15 10:46:11;;;;;;;3.35;2.05;;;;;;;10.51;100.00;103141.44;4891605;29;20553;-83
2021/12/15 10:52:24;;;;;;;4.00;1.65;;;;;;;10.56;100.00;103126.38;4822662;29;20103;-84
2021/12/15 10:55:25;;;;;;;3.42;2.42;;;;;;;10.63;100.00;103130.75;4828366;29;20046;-84
2021/12/15 10:57:54;;;;;;;2.00;1.55;;;;;;;10.53;100.00;103131.69;4835501;29;20129;-84
2021/12/15 11:00:22;;;;;;;3.90;1.73;;;;;;;10.56;100.00;103130.78;4824427;29;20065;-83
2021/12/15 11:02:48;;;;;;;3.63;0.90;;;;;;;10.59;100.00;103128.09;4876419;29;20036;-82
2021/12/15 11:05:22;;;;;;;2.30;1.63;;;;;;;10.55;100.00;103126.38;4899292;29;20036;-84
2021/12/15 11:11:04;;;;;;;0.85;0.73;;;;;;;10.50;100.00;103118.44;5005643;23;20052;-85
2021/12/15 11:14:53;;;;;;;3.22;1.83;;;;;;;10.48;100.00;103116.66;4916192;29;20072;-87
2021/12/15 11:17:37;;;;;;;0.77;0.77;;;;;;;10.70;100.00;103120.94;4899372;29;20036;-87
2021/12/15 11:20:35;;;;;;;1.45;1.13;;;;;;;10.62;100.00;103117.50;4914766;29;20032;-87
2021/12/15 11:23:15;;;;;;;2.60;1.15;;;;;;;10.62;100.00;103114.84;4916357;29;20040;-87
2021/12/15 11:25:44;;;;;;;1.55;1.10;;;;;;;10.78;100.00;103122.66;4918260;29;20024;-87
2021/12/15 11:28:39;;;;;;;1.05;0.93;;;;;;;10.59;100.00;103114.81;4918056;29;20087;-87
2021/12/15 11:31:14;;;;;;;1.35;0.90;;;;;;;10.88;100.00;103110.19;4898511;29;20040;-87
2021/12/15 11:33:48;;;;;;;1.60;1.50;;;;;;;10.73;100.00;103108.53;4899039;29;20065;-87
2021/12/15 11:36:27;;;;;;;4.53;1.25;;;;;;;10.72;100.00;103111.19;4898152;29;20028;-88
2021/12/15 11:39:28;;;;;;;3.05;2.08;;;;;;;10.70;100.00;103099.69;4899885;29;20032;-87
2021/12/15 11:42:36;;;;;;;2.30;1.75;;;;;;;10.71;100.00;103109.44;4903037;29;20107;-87
2021/12/15 11:45:36;;;;;;;2.10;1.52;;;;;;;10.57;100.00;103111.31;4903708;29;20040;-86
2021/12/15 11:48:37;;;;;;;4.03;2.17;;;;;;;10.59;100.00;103106.84;4904795;29;20032;-87
2021/12/15 11:54:39;;;;;;;1.38;1.02;;;;;;;10.83;100.00;103101.38;4902144;29;20373;-87
